Time;durP1;ratioP1;P1;durP2;ratioP2;P2;SDS_P1;SDS_P2;PMS_P1;PMS_P2;Temp;Humidity;BMP_temperature;BMP_pressure;BME280_temperature;BME280_humidity;BME280_pressure;Samples;Min_cycle;Max_cycle;Signal;HPM_P1;HPM_P2
2023/01/09 00:15:52;;;;;;;;;;;;;;;;;;4949642;28;19914;-64
2023/01/09 00:49:27;;;;;;;;;;;;;;;;;;4904523;29;19946;-64
2023/01/09 00:53:15;;;;;;;;;;;;;;;;;;4964670;28;19912;-63
2023/01/09 01:00:04;;;;;;;;;;;;;;;;;;4983379;28;20044;-63
2023/01/09 01:17:33;;;;;;;;;;;;;;;;;;4991779;28;20251;-63
2023/01/09 01:52:12;;;;;;;;;;;;;;;;;;4976455;28;20008;-64
2023/01/09 01:59:10;;;;;;;;;;;;;;;;;;;;;
2023/01/09 02:09:45;;;;;;;;;;;;;;;;;;4975613;28;20302;-65
2023/01/09 02:23:44;;;;;;;;;;;;;;;;;;;;;
2023/01/09 02:48:20;;;;;;;;;;;;;;;;;;4932675;28;19915;-64
2023/01/09 02:55:24;;;;;;;;;;;;;;;;;;;;;
2023/01/09 03:29:56;;;;;;;;;;;;;;;;;;;;;
2023/01/09 04:51:41;;;;;;;;;;;;;;;;;;4826128;29;20011;-66
2023/01/09 05:18:55;;;;;;;;;;;;;;;;;;;;;
2023/01/09 05:22:14;;;;;;;;;;;;;;;;;;;;;
2023/01/09 05:32:42;;;;;;;;;;;;;;;;;;4871374;29;19931;-65
2023/01/09 05:52:30;;;;;;;;;;;;;;;;;;4947695;28;19932;-66
2023/01/09 05:59:13;;;;;;;;;;;;;;;;;;4973501;28;19978;-65
2023/01/09 06:05:38;;;;;;;;;;;;;;;;;;4987432;28;19925;-65
2023/01/09 06:22:44;;;;;;;;;;;;;;;;;;4915528;28;19965;-64
2023/01/09 06:43:43;;;;;;;;;;;;;;;;;;4849319;29;19946;-65
2023/01/09 06:53:27;;;;;;;;;;;;;;;;;;4794050;29;20017;-65
2023/01/09 06:55:53;;;;;;;;;;;;;;;;;;4848756;29;20520;-65
2023/01/09 06:58:18;;;;;;;;;;;;;;;;;;5010067;28;19940;-64
2023/01/09 07:00:43;;;;;;;;;;;;;;;;;;5026169;28;20335;-65
2023/01/09 07:03:10;;;;;;;;;;;;;;;;;;5024838;28;19998;-64
2023/01/09 07:05:40;;;;;;;;;;;;;;;;;;5024676;28;19943;-64
2023/01/09 07:08:05;;;;;;;;;;;;;;;;;;5023719;28;20602;-64
2023/01/09 07:10:30;;;;;;;;;;;;;;;;;;5023331;28;19917;-64
2023/01/09 07:12:55;;;;;;;;;;;;;;;;;;5024404;28;19917;-64
2023/01/09 07:15:21;;;;;;;;;;;;;;;;;;5023815;28;19917;-65
2023/01/09 07:17:47;;;;;;;;;;;;;;;;;;5023598;28;20326;-64
2023/01/09 07:20:13;;;;;;;;;;;;;;;;;;5024091;28;19923;-64
2023/01/09 07:22:38;;;;;;;;;;;;;;;;;;5025474;28;20247;-64
2023/01/09 07:25:03;;;;;;;;;;;;;;;;;;5025833;28;20014;-64
2023/01/09 07:27:29;;;;;;;;;;;;;;;;;;5024178;28;19920;-64
2023/01/09 07:29:54;;;;;;;;;;;;;;;;;;5023629;28;19913;-64
2023/01/09 07:32:19;;;;;;;;;;;;;;;;;;5024159;28;19913;-64
2023/01/09 07:34:44;;;;;;;;;;;;;;;;;;5024706;28;19913;-64
2023/01/09 07:37:10;;;;;;;;;;;;;;;;;;5024999;28;20264;-64
2023/01/09 07:39:35;;;;;;;;;;;;;;;;;;5023552;28;20026;-64
2023/01/09 07:42:00;;;;;;;;;;;;;;;;;;5024927;28;20516;-65
2023/01/09 07:44:26;;;;;;;;;;;;;;;;;;5024096;28;20319;-64
2023/01/09 07:46:51;;;;;;;;;;;;;;;;;;5024414;28;19917;-65
2023/01/09 07:49:16;;;;;;;;;;;;;;;;;;5023783;28;19920;-65
2023/01/09 07:51:43;;;;;;;;;;;;;;;;;;5022559;28;20370;-64
2023/01/09 07:54:09;;;;;;;;;;;;;;;;;;5023932;28;19990;-65
2023/01/09 07:56:34;;;;;;;;;;;;;;;;;;5023556;28;20326;-66
2023/01/09 07:58:59;;;;;;;;;;;;;;;;;;5023749;28;19927;-66
2023/01/09 08:01:25;;;;;;;;;;;;;;;;;;5023770;28;19924;-65
2023/01/09 08:03:50;;;;;;;;;;;;;;;;;;5023850;28;19913;-65
2023/01/09 08:06:15;;;;;;;;;;;;;;;;;;5024115;28;19919;-65
2023/01/09 08:08:41;;;;;;;;;;;;;;;;;;5023561;28;19920;-64
2023/01/09 08:11:07;;;;;;;;;;;;;;;;;;5023711;28;19919;-62
2023/01/09 08:13:32;;;;;;;;;;;;;;;;;;5025540;28;20000;-64
2023/01/09 08:15:57;;;;;;;;;;;;;;;;;;5024884;28;19913;-64
2023/01/09 08:18:23;;;;;;;;;;;;;;;;;;5023120;28;19913;-65
2023/01/09 08:20:48;;;;;;;;;;;;;;;;;;5023804;28;19958;-65
2023/01/09 08:23:13;;;;;;;;;;;;;;;;;;5000907;28;20428;-65
2023/01/09 08:25:38;;;;;;;;;;;;;;;;;;5022940;28;19932;-65
2023/01/09 08:28:04;;;;;;;;;;;;;;;;;;5023650;28;19928;-65
2023/01/09 08:30:29;;;;;;;;;;;;;;;;;;5021773;28;19988;-65
2023/01/09 08:32:54;;;;;;;;;;;;;;;;;;5004179;28;19921;-65
2023/01/09 08:35:19;;;;;;;;;;;;;;;;;;5023672;28;19913;-64
2023/01/09 08:37:46;;;;;;;;;;;;;;;;;;5023180;28;20040;-64
2023/01/09 08:40:11;;;;;;;;;;;;;;;;;;5027155;28;19912;-65
2023/01/09 08:48:04;;;;;;;;;;;;;;;;;;5027903;28;19917;-65
2023/01/09 08:50:30;;;;;;;;;;;;;;;;;;5027165;28;19927;-63
2023/01/09 08:52:55;;;;;;;;;;;;;;;;;;5027173;28;19924;-63
2023/01/09 08:55:20;;;;;;;;;;;;;;;;;;5026615;28;20345;-62
2023/01/09 08:57:52;;;;;;;;;;;;;;;;;;5027084;28;19917;-64
2023/01/09 09:00:19;;;;;;;;;;;;;;;;;;5026789;28;20335;-63
2023/01/09 09:02:44;;;;;;;;;;;;;;;;;;5028140;28;19924;-64
2023/01/09 09:05:09;;;;;;;;;;;;;;;;;;5027266;28;19921;-65
2023/01/09 09:07:35;;;;;;;;;;;;;;;;;;5027370;28;20357;-65
2023/01/09 09:10:00;;;;;;;;;;;;;;;;;;5026609;28;19917;-65
2023/01/09 09:12:25;;;;;;;;;;;;;;;;;;5027180;28;19924;-65
2023/01/09 09:17:35;;;;;;;;;;;;;;;;;;5027421;28;19913;-63
2023/01/09 09:20:00;;;;;;;;;;;;;;;;;;5011401;28;19982;-64
2023/01/09 09:22:26;;;;;;;;;;;;;;;;;;5025121;28;19952;-64
2023/01/09 09:24:51;;;;;;;;;;;;;;;;;;5025251;28;19921;-63
2023/01/09 09:27:16;;;;;;;;;;;;;;;;;;5024750;28;20341;-63
2023/01/09 09:29:42;;;;;;;;;;;;;;;;;;5026233;28;19967;-63
2023/01/09 09:32:07;;;;;;;;;;;;;;;;;;5026779;28;20310;-64
2023/01/09 09:34:32;;;;;;;;;;;;;;;;;;5024112;28;19927;-64
2023/01/09 09:36:57;;;;;;;;;;;;;;;;;;5002341;28;20627;-63
2023/01/09 09:39:23;;;;;;;;;;;;;;;;;;5024891;28;19975;-63
2023/01/09 09:44:45;;;;;;;;;;;;;;;;;;5025916;28;19925;-64
2023/01/09 09:47:17;;;;;;;;;;;;;;;;;;5026224;28;20393;-63
2023/01/09 09:50:04;;;;;;;;;;;;;;;;;;5024499;28;20582;-64
2023/01/09 09:52:35;;;;;;;;;;;;;;;;;;5026275;28;19913;-64
2023/01/09 09:55:04;;;;;;;;;;;;;;;;;;5003347;28;19921;-64
2023/01/09 09:57:33;;;;;;;;;;;;;;;;;;5007781;28;20003;-64
2023/01/09 09:59:58;;;;;;;;;;;;;;;;;;5026039;28;19956;-64
2023/01/09 10:02:26;;;;;;;;;;;;;;;;;;5026254;28;19948;-64
2023/01/09 10:05:06;;;;;;;;;;;;;;;;;;5025833;28;19924;-64
2023/01/09 10:07:40;;;;;;;;;;;;;;;;;;5025113;28;19924;-64
2023/01/09 10:10:11;;;;;;;;;;;;;;;;;;5024881;28;19917;-64
2023/01/09 10:12:41;;;;;;;;;;;;;;;;;;5025539;28;19917;-64
2023/01/09 10:15:18;;;;;;;;;;;;;;;;;;5025673;28;19967;-64
2023/01/09 10:17:57;;;;;;;;;;;;;;;;;;5026035;28;20337;-64
2023/01/09 10:20:39;;;;;;;;;;;;;;;;;;5024790;28;19944;-64
2023/01/09 10:23:27;;;;;;;;;;;;;;;;;;5025814;28;20020;-63
2023/01/09 10:26:04;;;;;;;;;;;;;;;;;;5025064;28;19975;-62
2023/01/09 10:28:52;;;;;;;;;;;;;;;;;;5025110;28;19913;-63
2023/01/09 10:31:27;;;;;;;;;;;;;;;;;;5024056;28;19913;-63
2023/01/09 10:34:11;;;;;;;;;;;;;;;;;;5025204;28;19959;-64
2023/01/09 10:36:55;;;;;;;;;;;;;;;;;;5024358;28;19966;-62
2023/01/09 10:39:23;;;;;;;;;;;;;;;;;;5006356;28;19921;-63
2023/01/09 10:42:09;;;;;;;;;;;;;;;;;;5024846;28;19913;-62
2023/01/09 10:44:37;;;;;;;;;;;;;;;;;;5024048;28;19968;-63
2023/01/09 10:47:07;;;;;;;;;;;;;;;;;;5024238;28;19917;-63
2023/01/09 10:49:33;;;;;;;;;;;;;;;;;;5025186;28;19912;-63
2023/01/09 10:52:10;;;;;;;;;;;;;;;;;;5026095;28;19923;-64
2023/01/09 10:54:38;;;;;;;;;;;;;;;;;;5024771;28;20234;-63
2023/01/09 10:57:11;;;;;;;;;;;;;;;;;;5025520;28;19916;-64
2023/01/09 10:59:36;;;;;;;;;;;;;;;;;;5024938;28;19920;-62
2023/01/09 11:02:02;;;;;;;;;;;;;;;;;;5007809;28;19913;-63
2023/01/09 11:04:32;;;;;;;;;;;;;;;;;;5024873;28;19917;-63
2023/01/09 11:06:59;;;;;;;;;;;;;;;;;;5024755;28;19917;-66
2023/01/09 11:09:24;;;;;;;;;;;;;;;;;;5024714;28;19917;-66
2023/01/09 11:11:51;;;;;;;;;;;;;;;;;;5007486;28;19920;-65
2023/01/09 11:14:26;;;;;;;;;;;;;;;;;;5025581;28;19927;-63
2023/01/09 11:16:52;;;;;;;;;;;;;;;;;;5025498;28;20365;-63
2023/01/09 11:19:17;;;;;;;;;;;;;;;;;;5024941;28;20274;-64
2023/01/09 11:21:43;;;;;;;;;;;;;;;;;;5024052;28;19928;-63
2023/01/09 11:24:17;;;;;;;;;;;;;;;;;;5025416;28;19984;-64
2023/01/09 11:26:43;;;;;;;;;;;;;;;;;;5022898;28;19913;-64
2023/01/09 11:29:12;;;;;;;;;;;;;;;;;;5022906;28;20428;-63
2023/01/09 11:31:42;;;;;;;;;;;;;;;;;;5023190;28;20126;-63
2023/01/09 11:34:15;;;;;;;;;;;;;;;;;;5024383;28;20012;-64
2023/01/09 11:36:40;;;;;;;;;;;;;;;;;;5022738;28;19917;-63
2023/01/09 11:39:17;;;;;;;;;;;;;;;;;;5023106;28;19924;-62
2023/01/09 11:41:43;;;;;;;;;;;;;;;;;;5023677;28;19939;-63
2023/01/09 11:44:14;;;;;;;;;;;;;;;;;;5023445;28;19916;-63
2023/01/09 11:46:41;;;;;;;;;;;;;;;;;;5023701;28;19978;-64
2023/01/09 11:49:16;;;;;;;;;;;;;;;;;;5024465;28;20003;-64
2023/01/09 11:51:42;;;;;;;;;;;;;;;;;;5020544;28;19963;-64
2023/01/09 11:54:13;;;;;;;;;;;;;;;;;;5006527;28;19975;-64
2023/01/09 11:56:39;;;;;;;;;;;;;;;;;;5024893;28;20362;-66
2023/01/09 11:59:12;;;;;;;;;;;;;;;;;;5022955;28;19959;-64
2023/01/09 12:01:52;;;;;;;;;;;;;;;;;;5022088;28;19951;-64
2023/01/09 12:04:50;;;;;;;;;;;;;;;;;;5023892;28;19909;-65
2023/01/09 12:07:33;;;;;;;;;;;;;;;;;;4985065;28;19998;-64
2023/01/09 12:10:10;;;;;;;;;;;;;;;;;;5022830;28;20030;-65
2023/01/09 12:12:36;;;;;;;;;;;;;;;;;;5022255;28;19925;-64
2023/01/09 12:15:01;;;;;;;;;;;;;;;;;;5023234;28;19917;-64
2023/01/09 12:17:43;;;;;;;;;;;;;;;;;;5023510;28;19916;-65
2023/01/09 12:20:18;;;;;;;;;;;;;;;;;;5023108;28;19913;-65
2023/01/09 12:22:58;;;;;;;;;;;;;;;;;;5022566;28;19913;-65
2023/01/09 12:25:35;;;;;;;;;;;;;;;;;;5023878;28;19943;-66
2023/01/09 12:28:10;;;;;;;;;;;;;;;;;;5023578;28;19963;-66
2023/01/09 12:30:55;;;;;;;;;;;;;;;;;;5021080;28;19916;-66
2023/01/09 12:33:36;;;;;;;;;;;;;;;;;;4991982;28;19983;-65
2023/01/09 12:36:13;;;;;;;;;;;;;;;;;;5023120;28;19973;-64
2023/01/09 12:38:57;;;;;;;;;;;;;;;;;;5022095;28;19917;-64
2023/01/09 12:41:27;;;;;;;;;;;;;;;;;;5022114;28;19913;-64
2023/01/09 12:44:15;;;;;;;;;;;;;;;;;;5022847;28;19917;-64
2023/01/09 12:46:50;;;;;;;;;;;;;;;;;;5020892;28;20047;-65
2023/01/09 12:49:30;;;;;;;;;;;;;;;;;;5023153;28;20349;-64
2023/01/09 12:52:01;;;;;;;;;;;;;;;;;;5023771;28;19971;-64
2023/01/09 12:54:37;;;;;;;;;;;;;;;;;;5023076;28;19919;-64
2023/01/09 12:57:09;;;;;;;;;;;;;;;;;;5024208;28;20261;-64
2023/01/09 12:59:40;;;;;;;;;;;;;;;;;;5023275;28;19917;-64
2023/01/09 13:02:18;;;;;;;;;;;;;;;;;;5006989;28;19951;-63
2023/01/09 13:05:03;;;;;;;;;;;;;;;;;;5022832;28;20016;-63
2023/01/09 13:07:37;;;;;;;;;;;;;;;;;;4990337;28;19917;-64
2023/01/09 13:10:06;;;;;;;;;;;;;;;;;;5014744;28;19912;-64
2023/01/09 13:12:34;;;;;;;;;;;;;;;;;;5023400;28;20003;-64
2023/01/09 13:15:01;;;;;;;;;;;;;;;;;;5020563;28;20278;-64
2023/01/09 13:17:29;;;;;;;;;;;;;;;;;;5022979;28;19917;-65
2023/01/09 13:19:54;;;;;;;;;;;;;;;;;;5022551;28;20734;-64
2023/01/09 13:22:22;;;;;;;;;;;;;;;;;;5023562;28;19924;-65
2023/01/09 13:24:47;;;;;;;;;;;;;;;;;;5025308;28;20306;-64
2023/01/09 13:27:16;;;;;;;;;;;;;;;;;;5026696;28;19917;-64
2023/01/09 13:29:45;;;;;;;;;;;;;;;;;;5025026;28;19927;-63
2023/01/09 13:32:11;;;;;;;;;;;;;;;;;;5026402;28;19923;-64
2023/01/09 13:34:37;;;;;;;;;;;;;;;;;;5027254;28;19913;-63
2023/01/09 13:37:03;;;;;;;;;;;;;;;;;;5027705;28;20011;-64
2023/01/09 13:39:36;;;;;;;;;;;;;;;;;;5027410;28;19919;-64
2023/01/09 13:44:48;;;;;;;;;;;;;;;;;;5027136;28;19921;-63
2023/01/09 13:47:19;;;;;;;;;;;;;;;;;;5026953;28;19913;-63
2023/01/09 13:49:44;;;;;;;;;;;;;;;;;;5026534;28;19936;-64
2023/01/09 13:52:28;;;;;;;;;;;;;;;;;;5028298;28;20342;-64
2023/01/09 13:54:59;;;;;;;;;;;;;;;;;;5028601;28;20235;-63
2023/01/09 13:57:27;;;;;;;;;;;;;;;;;;5027514;28;20535;-63
2023/01/09 13:59:57;;;;;;;;;;;;;;;;;;5026746;28;19920;-64
2023/01/09 14:02:34;;;;;;;;;;;;;;;;;;5028553;28;19924;-63
2023/01/09 14:05:00;;;;;;;;;;;;;;;;;;5027133;28;20343;-63
2023/01/09 14:07:29;;;;;;;;;;;;;;;;;;5027002;28;19909;-63
2023/01/09 14:09:59;;;;;;;;;;;;;;;;;;5026523;28;19943;-63
2023/01/09 14:12:26;;;;;;;;;;;;;;;;;;5027031;28;20326;-63
2023/01/09 14:14:53;;;;;;;;;;;;;;;;;;5025678;28;19913;-64
2023/01/09 14:17:25;;;;;;;;;;;;;;;;;;5026297;28;19912;-64
2023/01/09 14:19:55;;;;;;;;;;;;;;;;;;5024961;28;19917;-63
2023/01/09 14:22:31;;;;;;;;;;;;;;;;;;5026252;28;20266;-63
2023/01/09 14:25:19;;;;;;;;;;;;;;;;;;5025821;28;19921;-63
2023/01/09 14:27:54;;;;;;;;;;;;;;;;;;5025070;28;19909;-63
2023/01/09 14:30:25;;;;;;;;;;;;;;;;;;5025342;28;19966;-64
2023/01/09 14:33:09;;;;;;;;;;;;;;;;;;5026544;28;19917;-63
2023/01/09 14:35:40;;;;;;;;;;;;;;;;;;5025628;28;19999;-63
2023/01/09 14:38:24;;;;;;;;;;;;;;;;;;5026510;28;19917;-63
2023/01/09 14:40:57;;;;;;;;;;;;;;;;;;5025551;28;20285;-63
2023/01/09 14:43:25;;;;;;;;;;;;;;;;;;5005895;28;19913;-63
2023/01/09 14:45:51;;;;;;;;;;;;;;;;;;5025999;28;20016;-64
2023/01/09 14:48:17;;;;;;;;;;;;;;;;;;5000277;28;19974;-64
2023/01/09 14:50:46;;;;;;;;;;;;;;;;;;5025513;28;19909;-62
2023/01/09 14:53:17;;;;;;;;;;;;;;;;;;5026111;28;20258;-63
2023/01/09 14:55:49;;;;;;;;;;;;;;;;;;5024910;28;19979;-62
2023/01/09 14:58:44;;;;;;;;;;;;;;;;;;5024994;28;19920;-62
2023/01/09 15:01:09;;;;;;;;;;;;;;;;;;5010758;28;20350;-62
2023/01/09 15:03:48;;;;;;;;;;;;;;;;;;5025355;28;19913;-62
2023/01/09 15:06:20;;;;;;;;;;;;;;;;;;5026030;28;20369;-63
2023/01/09 15:08:48;;;;;;;;;;;;;;;;;;5024710;28;19982;-63
2023/01/09 15:11:13;;;;;;;;;;;;;;;;;;5024889;28;20283;-62
2023/01/09 15:13:44;;;;;;;;;;;;;;;;;;5025090;28;19913;-62
2023/01/09 15:16:17;;;;;;;;;;;;;;;;;;5025509;28;20255;-64
2023/01/09 15:18:43;;;;;;;;;;;;;;;;;;5024527;28;19916;-62
2023/01/09 15:21:16;;;;;;;;;;;;;;;;;;5024447;28;19913;-62
2023/01/09 15:23:41;;;;;;;;;;;;;;;;;;5023299;28;19956;-63
2023/01/09 15:26:12;;;;;;;;;;;;;;;;;;5026899;28;19966;-63
2023/01/09 15:28:42;;;;;;;;;;;;;;;;;;5026256;28;19912;-62
2023/01/09 15:31:13;;;;;;;;;;;;;;;;;;5024616;28;20006;-62
2023/01/09 15:33:39;;;;;;;;;;;;;;;;;;5002714;28;20008;-65
2023/01/09 15:36:06;;;;;;;;;;;;;;;;;;5026804;28;19992;-64
2023/01/09 15:38:34;;;;;;;;;;;;;;;;;;5025199;28;20027;-63
2023/01/09 15:41:07;;;;;;;;;;;;;;;;;;5024775;28;19924;-63
2023/01/09 15:43:35;;;;;;;;;;;;;;;;;;5026829;28;19913;-63
2023/01/09 15:46:01;;;;;;;;;;;;;;;;;;5025406;28;19931;-64
2023/01/09 15:48:28;;;;;;;;;;;;;;;;;;5025771;28;19913;-65
2023/01/09 15:50:58;;;;;;;;;;;;;;;;;;5025038;28;19956;-64
2023/01/09 15:53:24;;;;;;;;;;;;;;;;;;5003672;28;19909;-66
2023/01/09 15:56:08;;;;;;;;;;;;;;;;;;5025675;28;19913;-62
2023/01/09 15:58:35;;;;;;;;;;;;;;;;;;5024854;28;19940;-61
2023/01/09 16:01:19;;;;;;;;;;;;;;;;;;5025112;28;19917;-62
2023/01/09 16:03:44;;;;;;;;;;;;;;;;;;5025788;28;20246;-62
2023/01/09 16:06:13;;;;;;;;;;;;;;;;;;5008087;28;19921;-61
2023/01/09 16:08:41;;;;;;;;;;;;;;;;;;5026249;28;20331;-62
2023/01/09 16:11:08;;;;;;;;;;;;;;;;;;5026005;28;20330;-61
2023/01/09 16:13:43;;;;;;;;;;;;;;;;;;5026274;28;19958;-61
2023/01/09 16:16:09;;;;;;;;;;;;;;;;;;5008749;28;20507;-61
2023/01/09 16:18:36;;;;;;;;;;;;;;;;;;5025901;28;20074;-61
2023/01/09 16:21:10;;;;;;;;;;;;;;;;;;5025501;28;19913;-61
2023/01/09 16:23:35;;;;;;;;;;;;;;;;;;5007366;28;20370;-62
2023/01/09 16:26:05;;;;;;;;;;;;;;;;;;5006136;28;19921;-61
2023/01/09 16:28:30;;;;;;;;;;;;;;;;;;5025644;28;19931;-61
2023/01/09 16:30:58;;;;;;;;;;;;;;;;;;5024360;28;19913;-61
2023/01/09 16:33:24;;;;;;;;;;;;;;;;;;5024591;28;19917;-61
2023/01/09 16:35:49;;;;;;;;;;;;;;;;;;5024902;28;19913;-61
2023/01/09 16:38:15;;;;;;;;;;;;;;;;;;5024477;28;19913;-61
2023/01/09 16:43:48;;;;;;;;;;;;;;;;;;5000342;28;19917;-61
2023/01/09 16:46:14;;;;;;;;;;;;;;;;;;5026275;28;19921;-60
2023/01/09 16:48:40;;;;;;;;;;;;;;;;;;5024750;28;20000;-61
2023/01/09 16:51:05;;;;;;;;;;;;;;;;;;5024726;28;19991;-61
2023/01/09 16:53:30;;;;;;;;;;;;;;;;;;5025657;28;19948;-61
2023/01/09 16:55:57;;;;;;;;;;;;;;;;;;5023673;28;20019;-61
2023/01/09 16:58:27;;;;;;;;;;;;;;;;;;5024440;28;19949;-61
2023/01/09 17:00:52;;;;;;;;;;;;;;;;;;5027836;28;20239;-61
2023/01/09 17:03:19;;;;;;;;;;;;;;;;;;5028628;28;19924;-61
2023/01/09 17:05:45;;;;;;;;;;;;;;;;;;5028946;28;19916;-62
2023/01/09 17:08:19;;;;;;;;;;;;;;;;;;5028917;28;19928;-61
2023/01/09 17:10:44;;;;;;;;;;;;;;;;;;5028944;28;19912;-61
2023/01/09 17:13:09;;;;;;;;;;;;;;;;;;5012353;28;20373;-61
2023/01/09 17:15:35;;;;;;;;;;;;;;;;;;5029130;28;19917;-62
2023/01/09 17:18:01;;;;;;;;;;;;;;;;;;5027495;28;19916;-62
2023/01/09 17:20:28;;;;;;;;;;;;;;;;;;5010956;28;19910;-62
2023/01/09 17:22:54;;;;;;;;;;;;;;;;;;5028233;28;19921;-61
2023/01/09 17:30:47;;;;;;;;;;;;;;;;;;5024216;28;19913;-52
2023/01/09 17:33:16;;;;;;;;;;;;;;;;;;5028369;28;19956;-53
2023/01/09 17:35:42;;;;;;;;;;;;;;;;;;5026617;28;19913;-50
2023/01/09 17:38:14;;;;;;;;;;;;;;;;;;5027650;28;19923;-53
2023/01/09 17:40:40;;;;;;;;;;;;;;;;;;5025682;28;19912;-53
2023/01/09 17:43:05;;;;;;;;;;;;;;;;;;5027231;28;19912;-51
2023/01/09 17:45:30;;;;;;;;;;;;;;;;;;5027778;28;19941;-52
2023/01/09 17:47:55;;;;;;;;;;;;;;;;;;5026782;28;19927;-53
2023/01/09 17:50:21;;;;;;;;;;;;;;;;;;5027366;28;20046;-51
2023/01/09 17:52:47;;;;;;;;;;;;;;;;;;5026587;28;20365;-49
2023/01/09 17:55:12;;;;;;;;;;;;;;;;;;5027389;28;19948;-51
2023/01/09 17:57:37;;;;;;;;;;;;;;;;;;5026424;28;19913;-50
2023/01/09 18:00:04;;;;;;;;;;;;;;;;;;5027297;28;19952;-53
2023/01/09 18:02:30;;;;;;;;;;;;;;;;;;5026803;28;20159;-53
2023/01/09 18:04:55;;;;;;;;;;;;;;;;;;5026275;28;19932;-51
2023/01/09 18:07:20;;;;;;;;;;;;;;;;;;5027730;28;19913;-55
2023/01/09 18:09:46;;;;;;;;;;;;;;;;;;5024792;28;20555;-54
2023/01/09 18:12:11;;;;;;;;;;;;;;;;;;5026021;28;20011;-51
2023/01/09 18:14:36;;;;;;;;;;;;;;;;;;5026014;28;19913;-51
2023/01/09 18:17:04;;;;;;;;;;;;;;;;;;5027207;28;19917;-53
2023/01/09 18:19:29;;;;;;;;;;;;;;;;;;5025988;28;20333;-54
2023/01/09 18:21:55;;;;;;;;;;;;;;;;;;5027112;28;19920;-52
2023/01/09 18:24:20;;;;;;;;;;;;;;;;;;5028638;28;20354;-51
2023/01/09 18:26:45;;;;;;;;;;;;;;;;;;5027499;28;19913;-54
2023/01/09 18:29:12;;;;;;;;;;;;;;;;;;5005173;28;20066;-54
2023/01/09 18:31:38;;;;;;;;;;;;;;;;;;5027038;28;19919;-53
2023/01/09 18:34:05;;;;;;;;;;;;;;;;;;5028393;28;19913;-53
2023/01/09 18:36:30;;;;;;;;;;;;;;;;;;5028089;28;19913;-53
2023/01/09 18:38:57;;;;;;;;;;;;;;;;;;5026879;28;19920;-53
2023/01/09 18:41:22;;;;;;;;;;;;;;;;;;5026809;28;20350;-52
2023/01/09 18:43:48;;;;;;;;;;;;;;;;;;5027363;28;19920;-49
2023/01/09 18:46:14;;;;;;;;;;;;;;;;;;5027755;28;19931;-52
2023/01/09 18:48:39;;;;;;;;;;;;;;;;;;5024475;28;19921;-53
2023/01/09 18:51:05;;;;;;;;;;;;;;;;;;5024920;28;19948;-53
2023/01/09 18:53:31;;;;;;;;;;;;;;;;;;5007608;28;19928;-54
2023/01/09 18:55:56;;;;;;;;;;;;;;;;;;5011366;28;20299;-55
2023/01/09 18:58:21;;;;;;;;;;;;;;;;;;5025073;28;19924;-56
2023/01/09 19:00:49;;;;;;;;;;;;;;;;;;5007925;28;19909;-52
2023/01/09 19:03:14;;;;;;;;;;;;;;;;;;5008629;28;19917;-54
2023/01/09 19:05:39;;;;;;;;;;;;;;;;;;5024914;28;19931;-56
2023/01/09 19:08:05;;;;;;;;;;;;;;;;;;5008428;28;19999;-53
2023/01/09 19:10:30;;;;;;;;;;;;;;;;;;5003794;28;19917;-54
2023/01/09 19:12:55;;;;;;;;;;;;;;;;;;5007628;28;19917;-50
2023/01/09 19:15:21;;;;;;;;;;;;;;;;;;5025779;28;19928;-53
2023/01/09 19:17:49;;;;;;;;;;;;;;;;;;5024527;28;19999;-52
2023/01/09 19:20:14;;;;;;;;;;;;;;;;;;5025613;28;19967;-55
2023/01/09 19:22:39;;;;;;;;;;;;;;;;;;5023707;28;19921;-54
2023/01/09 19:25:05;;;;;;;;;;;;;;;;;;5025847;28;19921;-52
2023/01/09 19:27:30;;;;;;;;;;;;;;;;;;5025544;28;19928;-52
2023/01/09 19:29:55;;;;;;;;;;;;;;;;;;5023812;28;19928;-53
2023/01/09 19:32:21;;;;;;;;;;;;;;;;;;5024950;28;19925;-53
2023/01/09 19:34:46;;;;;;;;;;;;;;;;;;5024514;28;19913;-52
2023/01/09 19:37:11;;;;;;;;;;;;;;;;;;5025370;28;19952;-50
2023/01/09 19:39:36;;;;;;;;;;;;;;;;;;5024644;28;20190;-52
2023/01/09 19:42:02;;;;;;;;;;;;;;;;;;5025784;28;19962;-49
2023/01/09 19:44:27;;;;;;;;;;;;;;;;;;5025379;28;20549;-53
2023/01/09 19:46:52;;;;;;;;;;;;;;;;;;5025234;28;19927;-54
2023/01/09 19:49:18;;;;;;;;;;;;;;;;;;5025742;28;19912;-54
2023/01/09 19:51:44;;;;;;;;;;;;;;;;;;5024829;28;20000;-52
2023/01/09 19:54:10;;;;;;;;;;;;;;;;;;5024615;28;20346;-52
2023/01/09 19:56:39;;;;;;;;;;;;;;;;;;5012477;28;19908;-51
2023/01/09 19:59:05;;;;;;;;;;;;;;;;;;5025602;28;19928;-51
2023/01/09 20:01:32;;;;;;;;;;;;;;;;;;5025316;28;19921;-53
2023/01/09 20:04:02;;;;;;;;;;;;;;;;;;5025152;28;19921;-53
2023/01/09 20:06:27;;;;;;;;;;;;;;;;;;5025002;28;19917;-54
2023/01/09 20:08:54;;;;;;;;;;;;;;;;;;5024047;28;19974;-51
2023/01/09 20:11:19;;;;;;;;;;;;;;;;;;5025206;28;20480;-52
2023/01/09 20:13:44;;;;;;;;;;;;;;;;;;5024857;28;19912;-54
2023/01/09 20:16:16;;;;;;;;;;;;;;;;;;5025574;28;19924;-52
2023/01/09 20:18:42;;;;;;;;;;;;;;;;;;5022794;28;20310;-54
2023/01/09 20:21:07;;;;;;;;;;;;;;;;;;5024258;28;19999;-53
2023/01/09 20:23:33;;;;;;;;;;;;;;;;;;5006266;28;19913;-53
2023/01/09 20:25:58;;;;;;;;;;;;;;;;;;5015257;28;19913;-53
2023/01/09 20:28:24;;;;;;;;;;;;;;;;;;5024035;28;20296;-53
2023/01/09 20:30:50;;;;;;;;;;;;;;;;;;5023892;28;20524;-53
2023/01/09 20:33:16;;;;;;;;;;;;;;;;;;5025439;28;19945;-54
2023/01/09 20:35:41;;;;;;;;;;;;;;;;;;5027695;28;19957;-54
2023/01/09 20:38:06;;;;;;;;;;;;;;;;;;5029523;28;20347;-52
2023/01/09 20:40:35;;;;;;;;;;;;;;;;;;5028724;28;19923;-51
2023/01/09 20:43:01;;;;;;;;;;;;;;;;;;5028457;28;19927;-53
2023/01/09 20:45:27;;;;;;;;;;;;;;;;;;5028909;28;19920;-62
2023/01/09 20:47:53;;;;;;;;;;;;;;;;;;5028259;28;20393;-62
2023/01/09 20:50:18;;;;;;;;;;;;;;;;;;5004917;28;19963;-61
2023/01/09 20:52:43;;;;;;;;;;;;;;;;;;5028806;28;20292;-62
2023/01/09 20:55:09;;;;;;;;;;;;;;;;;;5028274;28;19915;-62
2023/01/09 20:57:34;;;;;;;;;;;;;;;;;;5027671;28;19917;-62
2023/01/09 21:00:00;;;;;;;;;;;;;;;;;;5026738;28;20412;-62
2023/01/09 21:02:25;;;;;;;;;;;;;;;;;;5010719;28;19917;-62
2023/01/09 21:04:51;;;;;;;;;;;;;;;;;;5027366;28;20353;-62
2023/01/09 21:07:18;;;;;;;;;;;;;;;;;;5028940;28;20262;-62
2023/01/09 21:09:43;;;;;;;;;;;;;;;;;;5027736;28;20004;-61
2023/01/09 21:12:26;;;;;;;;;;;;;;;;;;5027152;28;19995;-61
2023/01/09 21:14:51;;;;;;;;;;;;;;;;;;5026949;28;20679;-62
2023/01/09 21:17:17;;;;;;;;;;;;;;;;;;5010958;28;19957;-61
2023/01/09 21:19:42;;;;;;;;;;;;;;;;;;5026046;28;19912;-61
2023/01/09 21:22:07;;;;;;;;;;;;;;;;;;5027314;28;20351;-60
2023/01/09 21:24:32;;;;;;;;;;;;;;;;;;5028891;28;19948;-61
2023/01/09 21:26:58;;;;;;;;;;;;;;;;;;5028519;28;19924;-61
2023/01/09 21:29:23;;;;;;;;;;;;;;;;;;5028750;28;20393;-61
2023/01/09 21:31:48;;;;;;;;;;;;;;;;;;5027351;28;19991;-62
2023/01/09 21:34:16;;;;;;;;;;;;;;;;;;5028385;28;19913;-61
2023/01/09 21:36:43;;;;;;;;;;;;;;;;;;5028002;28;19921;-61
2023/01/09 21:39:09;;;;;;;;;;;;;;;;;;5027840;28;20456;-61
2023/01/09 21:47:02;;;;;;;;;;;;;;;;;;5026390;28;19936;-62
2023/01/09 21:49:29;;;;;;;;;;;;;;;;;;5028393;28;19908;-62
2023/01/09 21:51:55;;;;;;;;;;;;;;;;;;5027385;28;19923;-62
2023/01/09 21:54:22;;;;;;;;;;;;;;;;;;5028437;28;19925;-53
2023/01/09 21:56:47;;;;;;;;;;;;;;;;;;5007435;28;20354;-51
2023/01/09 21:59:12;;;;;;;;;;;;;;;;;;5027649;28;19974;-51
2023/01/09 22:01:37;;;;;;;;;;;;;;;;;;5027519;28;19924;-53
2023/01/09 22:04:03;;;;;;;;;;;;;;;;;;5027848;28;19978;-50
2023/01/09 22:06:28;;;;;;;;;;;;;;;;;;5027634;28;20374;-52
2023/01/09 22:08:54;;;;;;;;;;;;;;;;;;5026882;28;19917;-54
2023/01/09 22:11:20;;;;;;;;;;;;;;;;;;5027065;28;19909;-53
2023/01/09 22:13:45;;;;;;;;;;;;;;;;;;5027354;28;19920;-52
2023/01/09 22:16:11;;;;;;;;;;;;;;;;;;5028107;28;19978;-53
2023/01/09 22:18:36;;;;;;;;;;;;;;;;;;5026874;28;19913;-53
2023/01/09 22:21:02;;;;;;;;;;;;;;;;;;5026778;28;19908;-52
2023/01/09 22:23:27;;;;;;;;;;;;;;;;;;5027265;28;19909;-55
2023/01/09 22:25:53;;;;;;;;;;;;;;;;;;5025867;28;19920;-55
2023/01/09 22:28:19;;;;;;;;;;;;;;;;;;5027377;28;19956;-54
2023/01/09 22:30:44;;;;;;;;;;;;;;;;;;5027088;28;19916;-50
2023/01/09 22:33:10;;;;;;;;;;;;;;;;;;5027329;28;19913;-54
2023/01/09 22:35:35;;;;;;;;;;;;;;;;;;5026904;28;20302;-54
2023/01/09 22:38:00;;;;;;;;;;;;;;;;;;5024490;28;19940;-54
2023/01/09 22:40:26;;;;;;;;;;;;;;;;;;5025043;28;20012;-54
2023/01/09 22:42:51;;;;;;;;;;;;;;;;;;5024864;28;19928;-55
2023/01/09 22:45:16;;;;;;;;;;;;;;;;;;5027691;28;20518;-51
2023/01/09 22:47:42;;;;;;;;;;;;;;;;;;5027849;28;19913;-54
2023/01/09 22:50:08;;;;;;;;;;;;;;;;;;5025857;28;19921;-52
2023/01/09 22:52:33;;;;;;;;;;;;;;;;;;5026307;28;19952;-52
2023/01/09 22:54:58;;;;;;;;;;;;;;;;;;5027113;28;19943;-53
2023/01/09 22:57:24;;;;;;;;;;;;;;;;;;5025404;28;19909;-52
2023/01/09 22:59:49;;;;;;;;;;;;;;;;;;5004197;28;20011;-55
2023/01/09 23:02:14;;;;;;;;;;;;;;;;;;5027046;28;19909;-55
2023/01/09 23:04:39;;;;;;;;;;;;;;;;;;5026245;28;19917;-53
2023/01/09 23:07:05;;;;;;;;;;;;;;;;;;5025269;28;19996;-54
2023/01/09 23:09:30;;;;;;;;;;;;;;;;;;5008951;28;19928;-52
2023/01/09 23:12:01;;;;;;;;;;;;;;;;;;5025130;28;20800;-53
2023/01/09 23:14:27;;;;;;;;;;;;;;;;;;5026214;28;19913;-60
2023/01/09 23:16:52;;;;;;;;;;;;;;;;;;5028123;28;19936;-62
2023/01/09 23:19:17;;;;;;;;;;;;;;;;;;5027139;28;20247;-60
2023/01/09 23:21:43;;;;;;;;;;;;;;;;;;5027568;28;20334;-61
2023/01/09 23:24:09;;;;;;;;;;;;;;;;;;5027671;28;20007;-53